createdAt,value
2022-10-01T00:00:06.385Z,5.85
2022-10-01T00:02:42.967Z,6.18
2022-10-01T00:05:15.620Z,6.97
2022-10-01T00:07:45.326Z,8.27
2022-10-01T00:10:16.304Z,5.25
2022-10-01T00:12:49.286Z,5.05
2022-10-01T00:15:38.070Z,5.38
2022-10-01T00:18:15.899Z,6.85
2022-10-01T00:20:47.644Z,6.53
2022-10-01T00:23:16.091Z,6.30
2022-10-01T00:25:48.371Z,6.60
2022-10-01T00:28:16.368Z,6.93
2022-10-01T00:30:53.274Z,7.55
2022-10-01T00:33:26.976Z,6.13
2022-10-01T00:36:00.839Z,7.13
2022-10-01T00:38:33.468Z,6.65
2022-10-01T00:41:03.118Z,5.32
2022-10-01T00:43:33.911Z,6.70
2022-10-01T00:46:27.832Z,5.88
2022-10-01T00:49:24.828Z,5.50
2022-10-01T00:51:58.009Z,6.55
2022-10-01T00:54:39.991Z,6.32
2022-10-01T00:57:20.577Z,6.78
2022-10-01T00:59:54.616Z,7.10
2022-10-01T01:02:21.810Z,4.45
2022-10-01T01:04:51.965Z,7.50
2022-10-01T01:07:29.259Z,5.32
2022-10-01T01:13:21.703Z,5.97
2022-10-01T01:15:59.732Z,6.07
2022-10-01T01:18:49.702Z,6.07
2022-10-01T01:21:30.089Z,5.45
2022-10-01T01:25:02.087Z,6.70
2022-10-01T01:27:36.237Z,5.40
2022-10-01T01:30:20.703Z,4.95
2022-10-01T01:33:15.393Z,6.57
2022-10-01T01:35:57.121Z,6.70
2022-10-01T01:38:40.428Z,8.02
2022-10-01T01:41:11.256Z,7.80
2022-10-01T01:43:53.778Z,7.10
2022-10-01T01:46:24.441Z,6.43
2022-10-01T01:48:57.831Z,6.43
2022-10-01T01:51:49.847Z,8.20
2022-10-01T01:54:21.991Z,8.90
2022-10-01T01:57:11.831Z,8.23
2022-10-01T01:59:47.627Z,7.82
2022-10-01T02:02:26.904Z,8.52
2022-10-01T02:05:03.821Z,7.97
2022-10-01T02:07:52.746Z,5.68
2022-10-01T02:10:37.762Z,5.57
2022-10-01T02:13:42.909Z,7.47
2022-10-01T02:16:39.748Z,7.40
2022-10-01T02:19:37.166Z,6.65
2022-10-01T02:22:23.546Z,5.38
2022-10-01T02:25:03.457Z,5.05
2022-10-01T02:27:48.697Z,7.10
2022-10-01T02:30:16.617Z,6.85
2022-10-01T02:32:49.426Z,7.80
2022-10-01T02:35:29.415Z,6.18
2022-10-01T02:37:59.186Z,6.07
2022-10-01T02:40:31.248Z,6.15
2022-10-01T02:43:20.007Z,6.22
2022-10-01T02:45:55.529Z,6.60
2022-10-01T02:48:31.367Z,5.93
2022-10-01T02:51:32.294Z,6.85
2022-10-01T02:54:09.021Z,8.13
2022-10-01T02:56:56.400Z,7.80
2022-10-01T02:59:26.250Z,8.00
2022-10-01T03:01:56.560Z,7.68
2022-10-01T03:04:24.886Z,7.97
2022-10-01T03:07:15.461Z,6.75
2022-10-01T03:09:47.657Z,10.05
2022-10-01T03:12:23.090Z,7.60
2022-10-01T03:14:51.938Z,9.70
2022-10-01T03:17:20.053Z,7.53
2022-10-01T03:19:47.983Z,6.75
2022-10-01T03:22:42.865Z,8.55
2022-10-01T03:25:14.373Z,9.73
2022-10-01T03:27:50.756Z,9.98
2022-10-01T03:30:45.700Z,10.20
2022-10-01T03:33:28.194Z,8.80
2022-10-01T03:36:04.517Z,5.63
2022-10-01T03:38:32.837Z,9.23
2022-10-01T03:41:03.435Z,6.25
2022-10-01T03:43:30.672Z,7.05
2022-10-01T03:46:02.496Z,7.15
2022-10-01T03:48:33.219Z,6.60
2022-10-01T03:51:01.458Z,8.07
2022-10-01T03:56:19.265Z,6.45
2022-10-01T03:58:46.355Z,5.75
2022-10-01T04:01:15.185Z,5.93
2022-10-01T04:03:46.386Z,5.72
2022-10-01T04:06:17.242Z,5.70
2022-10-01T04:08:45.924Z,8.05
2022-10-01T04:11:13.306Z,5.65
2022-10-01T04:13:43.977Z,5.75
2022-10-01T04:16:19.012Z,4.45
2022-10-01T04:18:49.138Z,5.63
2022-10-01T04:21:19.250Z,5.47
2022-10-01T04:23:50.712Z,5.45
2022-10-01T04:26:29.111Z,5.30
2022-10-01T04:29:01.705Z,8.13
2022-10-01T04:34:13.803Z,6.57
2022-10-01T04:36:41.051Z,6.20
2022-10-01T04:39:12.023Z,5.30
2022-10-01T04:41:39.653Z,6.30
2022-10-01T04:44:12.422Z,7.18
2022-10-01T04:46:42.696Z,5.80
2022-10-01T04:49:10.727Z,7.47
2022-10-01T04:51:41.412Z,7.18
2022-10-01T04:54:16.857Z,7.85
2022-10-01T04:56:47.234Z,6.47
2022-10-01T04:59:14.483Z,4.85
2022-10-01T05:01:42.498Z,6.25
2022-10-01T05:04:13.155Z,6.82
2022-10-01T05:06:43.266Z,7.88
2022-10-01T05:09:20.220Z,5.25
2022-10-01T05:11:52.159Z,6.65
2022-10-01T05:14:23.137Z,8.35
2022-10-01T05:17:02.285Z,10.20
2022-10-01T05:19:36.620Z,9.65
2022-10-01T05:22:06.201Z,8.75
2022-10-01T05:24:36.539Z,9.45
2022-10-01T05:27:17.849Z,9.27
2022-10-01T05:29:48.967Z,7.97
2022-10-01T05:32:25.014Z,6.90
2022-10-01T05:35:02.694Z,8.43
2022-10-01T05:37:49.841Z,8.32
2022-10-01T05:40:43.084Z,7.63
2022-10-01T05:46:14.440Z,8.63
2022-10-01T05:49:19.027Z,6.82
2022-10-01T05:51:55.837Z,6.45
2022-10-01T05:54:37.431Z,8.57
2022-10-01T05:57:34.967Z,7.25
2022-10-01T06:00:22.994Z,6.10
2022-10-01T06:02:52.683Z,8.05
2022-10-01T06:05:48.308Z,9.07
2022-10-01T06:08:37.964Z,7.22
2022-10-01T06:14:45.865Z,6.97
2022-10-01T06:17:21.165Z,8.20
2022-10-01T06:20:10.890Z,8.25
2022-10-01T06:22:41.642Z,8.32
2022-10-01T06:25:32.222Z,9.77
2022-10-01T06:28:07.397Z,7.78
2022-10-01T06:30:43.200Z,8.23
2022-10-01T06:33:16.392Z,8.20
2022-10-01T06:35:55.718Z,7.28
2022-10-01T06:38:28.052Z,8.35
2022-10-01T06:41:08.726Z,7.07
2022-10-01T06:43:43.125Z,8.48
2022-10-01T06:46:34.212Z,8.40
2022-10-01T06:55:29.897Z,9.27
2022-10-01T06:58:05.753Z,7.13
2022-10-01T07:01:00.462Z,7.63
2022-10-01T07:03:51.461Z,7.43
2022-10-01T07:10:14.669Z,10.75
2022-10-01T07:13:03.434Z,12.98
2022-10-01T07:16:29.005Z,9.90
2022-10-01T07:19:46.792Z,12.57
2022-10-01T07:22:49.339Z,11.50
2022-10-01T07:25:29.599Z,10.02
2022-10-01T07:28:24.405Z,7.93
2022-10-01T07:31:59.447Z,9.32
2022-10-01T07:35:27.128Z,8.13
2022-10-01T07:40:25.087Z,7.85
2022-10-01T07:43:25.538Z,8.13
2022-10-01T07:45:58.264Z,7.40
2022-10-01T07:48:54.000Z,8.07
2022-10-01T07:51:28.237Z,7.35
2022-10-01T07:54:06.907Z,6.35
2022-10-01T07:56:46.625Z,8.82
2022-10-01T07:59:25.771Z,6.75
2022-10-01T08:01:59.771Z,9.10
2022-10-01T08:04:46.235Z,7.30
2022-10-01T08:07:26.443Z,8.55
2022-10-01T08:09:57.994Z,7.55
2022-10-01T08:13:03.636Z,6.20
2022-10-01T08:15:41.688Z,7.53
2022-10-01T08:18:55.366Z,7.60
2022-10-01T08:21:42.998Z,6.20
2022-10-01T08:25:04.093Z,5.47
2022-10-01T08:28:16.662Z,6.25
2022-10-01T08:31:22.249Z,7.97
2022-10-01T08:34:21.090Z,8.27
2022-10-01T08:43:07.670Z,9.32
2022-10-01T08:49:08.443Z,10.02
2022-10-01T08:52:17.298Z,10.85
2022-10-01T08:55:17.179Z,8.75
2022-10-01T08:58:18.768Z,7.38
2022-10-01T09:01:00.153Z,7.03
2022-10-01T09:06:27.942Z,6.20
2022-10-01T09:09:50.419Z,7.15
2022-10-01T09:13:22.677Z,7.68
2022-10-01T09:16:09.767Z,6.90
2022-10-01T09:19:32.638Z,6.40
2022-10-01T09:22:23.745Z,6.85
2022-10-01T09:25:16.719Z,6.50
2022-10-01T09:28:13.358Z,6.35
2022-10-01T09:34:37.211Z,6.82
2022-10-01T09:41:15.884Z,5.95
2022-10-01T09:43:45.720Z,5.88
2022-10-01T09:46:20.412Z,6.85
2022-10-01T09:49:00.882Z,6.50
2022-10-01T09:52:11.331Z,6.78
2022-10-01T09:55:04.580Z,5.05
2022-10-01T09:57:39.451Z,5.22
2022-10-01T10:00:26.461Z,4.60
2022-10-01T10:06:53.784Z,3.63
2022-10-01T10:09:45.714Z,3.67
2022-10-01T10:12:32.429Z,4.53
2022-10-01T10:15:41.522Z,3.80
2022-10-01T10:18:35.897Z,3.85
2022-10-01T10:24:03.053Z,3.05
2022-10-01T10:26:48.687Z,3.22
2022-10-01T10:32:37.351Z,2.92
2022-10-01T10:35:29.455Z,3.40
2022-10-01T10:38:01.824Z,3.40
2022-10-01T10:41:00.156Z,3.55
2022-10-01T10:43:37.289Z,2.63
2022-10-01T10:46:19.866Z,3.22
2022-10-01T10:52:33.532Z,3.17
2022-10-01T10:55:29.581Z,2.65
2022-10-01T10:58:37.734Z,2.95
2022-10-01T11:01:22.402Z,5.32
2022-10-01T11:04:26.592Z,4.57
2022-10-01T11:07:06.408Z,4.53
2022-10-01T11:10:24.753Z,3.80
2022-10-01T11:13:21.298Z,4.80
2022-10-01T11:16:30.130Z,4.25
2022-10-01T11:19:24.358Z,3.92
2022-10-01T11:22:12.697Z,3.40
2022-10-01T11:25:19.161Z,2.97
2022-10-01T11:35:10.575Z,6.00
2022-10-01T11:38:28.314Z,4.50
2022-10-01T11:41:25.028Z,4.78
2022-10-01T11:44:05.338Z,4.00
2022-10-01T11:47:06.145Z,4.40
2022-10-01T11:50:00.365Z,5.22
2022-10-01T11:53:02.650Z,5.63
2022-10-01T11:56:05.922Z,5.82
2022-10-01T11:58:54.674Z,4.45
2022-10-01T12:01:53.082Z,4.75
2022-10-01T12:04:41.990Z,4.65
2022-10-01T12:07:40.307Z,4.55
2022-10-01T12:10:41.375Z,3.67
2022-10-01T12:13:14.497Z,2.90
2022-10-01T12:16:11.862Z,7.28
2022-10-01T12:19:26.311Z,5.60
2022-10-01T12:22:02.580Z,6.35
2022-10-01T12:27:47.645Z,7.90
2022-10-01T12:30:24.008Z,4.15
2022-10-01T12:33:36.561Z,3.90
2022-10-01T12:36:01.355Z,4.68
2022-10-01T12:38:51.283Z,4.28
2022-10-01T12:41:52.937Z,4.95
2022-10-01T12:44:57.874Z,4.10
2022-10-01T12:50:53.286Z,17.77
2022-10-01T12:53:43.960Z,4.00
2022-10-01T12:56:34.125Z,9.93
2022-10-01T12:59:51.088Z,4.05
2022-10-01T13:02:35.940Z,5.75
2022-10-01T13:05:46.603Z,5.03
2022-10-01T13:08:55.560Z,3.42
2022-10-01T13:11:36.659Z,5.70
2022-10-01T13:14:10.789Z,4.18
2022-10-01T13:17:12.153Z,4.82
2022-10-01T13:20:08.297Z,3.97
2022-10-01T13:22:48.709Z,5.30
2022-10-01T13:25:33.563Z,3.63
2022-10-01T13:28:10.389Z,3.03
2022-10-01T13:31:01.188Z,3.25
2022-10-01T13:33:40.228Z,3.85
2022-10-01T13:36:13.389Z,3.92
2022-10-01T13:38:48.248Z,4.30
2022-10-01T13:41:39.004Z,4.20
2022-10-01T13:44:13.975Z,3.85
2022-10-01T13:47:08.365Z,3.45
2022-10-01T13:49:45.147Z,3.78
2022-10-01T13:52:28.310Z,16.75
2022-10-01T13:55:03.061Z,3.35
2022-10-01T13:57:48.716Z,9.52
2022-10-01T14:00:17.966Z,3.03
2022-10-01T14:03:27.845Z,5.40
2022-10-01T14:06:18.392Z,3.25
2022-10-01T14:09:31.692Z,3.50
2022-10-01T14:12:36.218Z,3.13
2022-10-01T14:16:12.983Z,3.10
2022-10-01T14:19:08.356Z,3.15
2022-10-01T14:21:55.145Z,3.80
2022-10-01T14:24:49.730Z,4.13
2022-10-01T14:30:54.648Z,2.53
2022-10-01T14:34:02.677Z,2.40
2022-10-01T14:36:54.499Z,3.55
2022-10-01T14:39:31.312Z,3.10
2022-10-01T14:45:01.318Z,2.67
2022-10-01T14:47:43.992Z,5.43
2022-10-01T14:50:48.251Z,2.63
2022-10-01T14:53:25.690Z,3.20
2022-10-01T14:56:11.015Z,3.30
2022-10-01T14:58:44.615Z,2.78
2022-10-01T15:01:33.382Z,3.30
2022-10-01T15:04:40.907Z,4.82
2022-10-01T15:07:21.178Z,5.18
2022-10-01T15:09:54.252Z,3.08
2022-10-01T15:12:24.164Z,3.83
2022-10-01T15:17:48.851Z,3.45
2022-10-01T15:23:01.194Z,3.78
2022-10-01T15:25:32.930Z,3.72
2022-10-01T15:28:11.098Z,4.07
2022-10-01T15:30:49.325Z,3.63
2022-10-01T15:33:29.084Z,4.05
2022-10-01T15:39:09.871Z,4.95
2022-10-01T15:44:50.002Z,6.07
2022-10-01T15:47:37.555Z,5.13
2022-10-01T15:50:13.785Z,5.78
2022-10-01T15:53:03.659Z,7.20
2022-10-01T15:55:43.474Z,18.58
2022-10-01T15:58:40.710Z,27.45
2022-10-01T16:01:39.037Z,24.27
2022-10-01T16:04:14.631Z,15.98
2022-10-01T16:06:54.456Z,17.23
2022-10-01T16:10:13.667Z,17.00
2022-10-01T16:12:52.021Z,14.40
2022-10-01T16:15:42.059Z,18.15
2022-10-01T16:18:24.084Z,11.25
2022-10-01T16:24:25.046Z,8.98
2022-10-01T16:27:01.277Z,13.05
2022-10-01T16:29:54.373Z,10.25
2022-10-01T16:32:27.076Z,9.82
2022-10-01T16:35:14.875Z,10.10
2022-10-01T16:37:42.884Z,10.00
2022-10-01T16:40:35.840Z,11.38
2022-10-01T16:43:05.761Z,10.95
2022-10-01T16:45:41.741Z,10.43
2022-10-01T16:48:35.775Z,10.27
2022-10-01T16:51:11.596Z,11.52
2022-10-01T16:54:05.387Z,9.02
2022-10-01T16:56:50.998Z,9.85
2022-10-01T16:59:25.525Z,21.42
2022-10-01T17:01:55.875Z,15.52
2022-10-01T17:04:35.592Z,14.50
2022-10-01T17:07:07.404Z,13.38
2022-10-01T17:09:42.827Z,11.63
2022-10-01T17:12:13.313Z,10.68
2022-10-01T17:15:08.832Z,13.52
2022-10-01T17:17:36.684Z,11.52
2022-10-01T17:20:07.543Z,10.93
2022-10-01T17:22:39.335Z,13.30
2022-10-01T17:25:07.808Z,11.57
2022-10-01T17:27:42.769Z,14.55
2022-10-01T17:32:46.471Z,15.77
2022-10-01T17:35:19.566Z,10.88
2022-10-01T17:37:47.335Z,13.68
2022-10-01T17:40:25.803Z,14.13
2022-10-01T17:43:06.047Z,15.45
2022-10-01T17:45:36.368Z,18.85
2022-10-01T17:48:09.997Z,15.57
2022-10-01T17:51:03.839Z,14.45
2022-10-01T17:53:41.896Z,9.60
2022-10-01T17:56:42.035Z,9.50
2022-10-01T17:59:15.723Z,7.82
2022-10-01T18:01:49.087Z,8.77
2022-10-01T18:04:32.605Z,9.82
2022-10-01T18:07:23.531Z,7.95
2022-10-01T18:10:00.789Z,10.10
2022-10-01T18:12:37.839Z,9.15
2022-10-01T18:15:14.980Z,10.20
2022-10-01T18:19:12.769Z,11.10
2022-10-01T18:20:49.691Z,10.75
2022-10-01T18:23:23.198Z,10.43
2022-10-01T18:25:51.302Z,11.30
2022-10-01T18:28:23.611Z,10.10
2022-10-01T18:31:27.048Z,8.82
2022-10-01T18:34:16.215Z,7.95
2022-10-01T18:36:49.048Z,7.82
2022-10-01T18:39:49.544Z,9.05
2022-10-01T18:42:51.047Z,8.57
2022-10-01T18:45:23.195Z,7.80
2022-10-01T18:48:23.532Z,6.85
2022-10-01T18:51:18.403Z,7.75
2022-10-01T18:54:05.802Z,8.10
2022-10-01T18:56:56.180Z,8.40
2022-10-01T19:02:39.534Z,6.47
2022-10-01T19:05:19.881Z,6.60
2022-10-01T19:08:19.809Z,7.80
2022-10-01T19:11:21.695Z,9.48
2022-10-01T19:14:07.814Z,7.07
2022-10-01T19:17:33.899Z,7.72
2022-10-01T19:20:15.891Z,6.32
2022-10-01T19:23:05.615Z,5.40
2022-10-01T19:26:18.591Z,4.80
2022-10-01T19:28:58.792Z,6.63
2022-10-01T19:31:57.459Z,5.38
2022-10-01T19:38:11.795Z,5.88
2022-10-01T19:40:54.346Z,5.45
2022-10-01T19:43:32.091Z,5.55
2022-10-01T19:46:16.470Z,5.18
2022-10-01T19:49:29.631Z,4.90
2022-10-01T19:52:19.257Z,5.05
2022-10-01T19:55:17.881Z,4.65
2022-10-01T19:57:49.235Z,4.95
2022-10-01T20:00:26.364Z,5.50
2022-10-01T20:03:24.114Z,5.07
2022-10-01T20:09:31.254Z,6.63
2022-10-01T20:12:31.404Z,8.07
2022-10-01T20:15:23.685Z,5.90
2022-10-01T20:18:27.812Z,8.38
2022-10-01T20:21:20.160Z,8.80
2022-10-01T20:24:29.288Z,6.85
2022-10-01T20:27:16.000Z,6.63
2022-10-01T20:30:15.378Z,8.48
2022-10-01T20:33:28.106Z,6.38
2022-10-01T20:36:54.177Z,5.78
2022-10-01T20:39:41.715Z,6.28
2022-10-01T20:42:52.040Z,6.50
2022-10-01T20:45:30.828Z,6.50
2022-10-01T20:48:10.517Z,6.35
2022-10-01T20:51:17.013Z,7.60
2022-10-01T20:56:46.199Z,5.43
2022-10-01T20:59:34.415Z,4.13
2022-10-01T21:02:38.793Z,5.95
2022-10-01T21:05:17.560Z,5.00
2022-10-01T21:07:53.288Z,3.67
2022-10-01T21:10:36.504Z,5.88
2022-10-01T21:13:13.712Z,4.53
2022-10-01T21:16:23.587Z,4.82
2022-10-01T21:19:17.978Z,5.00
2022-10-01T21:22:04.493Z,4.70
2022-10-01T21:25:06.796Z,6.15
2022-10-01T21:28:25.771Z,5.05
2022-10-01T21:31:20.656Z,5.03
2022-10-01T21:34:18.038Z,4.30
2022-10-01T21:37:28.220Z,3.38
2022-10-01T21:40:29.722Z,4.57
2022-10-01T21:46:42.877Z,5.18
2022-10-01T21:49:28.144Z,3.65
2022-10-01T21:52:21.455Z,5.03
2022-10-01T21:55:24.697Z,4.38
2022-10-01T22:00:55.116Z,4.90
2022-10-01T22:04:19.434Z,3.50
2022-10-01T22:13:23.928Z,4.82
2022-10-01T22:15:57.599Z,4.03
2022-10-01T22:18:43.358Z,5.63
2022-10-01T22:21:29.383Z,4.57
2022-10-01T22:24:07.050Z,5.00
2022-10-01T22:26:41.217Z,4.03
2022-10-01T22:29:25.283Z,4.78
2022-10-01T22:32:04.313Z,6.13
2022-10-01T22:34:46.611Z,3.90
2022-10-01T22:37:37.993Z,5.43
2022-10-01T22:40:24.046Z,3.63
2022-10-01T22:43:04.822Z,4.72
2022-10-01T22:46:17.293Z,3.88
2022-10-01T22:49:07.296Z,3.63
2022-10-01T22:51:54.242Z,4.97
2022-10-01T23:01:23.708Z,3.70
2022-10-01T23:04:04.900Z,5.80
2022-10-01T23:06:56.280Z,7.93
2022-10-01T23:09:35.840Z,5.28
2022-10-01T23:12:24.020Z,4.07
2022-10-01T23:15:07.904Z,3.67
2022-10-01T23:17:55.696Z,4.05
2022-10-01T23:20:53.504Z,7.78
2022-10-01T23:23:34.876Z,7.45
2022-10-01T23:26:36.810Z,8.30
2022-10-01T23:29:31.515Z,7.38
2022-10-01T23:32:27.239Z,7.13
2022-10-01T23:35:26.912Z,5.43
2022-10-01T23:38:28.620Z,5.47
2022-10-01T23:44:37.932Z,4.78
2022-10-01T23:47:22.639Z,4.40
2022-10-01T23:50:05.155Z,6.22
2022-10-01T23:53:04.360Z,8.05
2022-10-01T23:56:16.888Z,9.98
